createdAt,value
2023-04-23T00:01:59.291Z,14.80
2023-04-23T00:04:28.996Z,14.80
2023-04-23T00:06:58.515Z,14.80
2023-04-23T00:09:29.973Z,14.80
2023-04-23T00:11:58.182Z,14.80
2023-04-23T00:14:26.012Z,14.80
2023-04-23T00:16:55.093Z,14.80
2023-04-23T00:19:23.018Z,14.70
2023-04-23T00:21:50.672Z,14.70
2023-04-23T00:24:18.104Z,14.70
2023-04-23T00:26:45.690Z,14.70
2023-04-23T00:29:13.087Z,14.70
2023-04-23T00:31:40.587Z,14.70
2023-04-23T00:34:08.129Z,14.70
2023-04-23T00:36:35.708Z,14.60
2023-04-23T00:39:03.708Z,14.70
2023-04-23T00:41:31.998Z,14.70
2023-04-23T00:44:00.828Z,14.60
2023-04-23T00:46:28.568Z,14.70
2023-04-23T00:48:56.764Z,14.70
2023-04-23T00:51:24.588Z,14.60
2023-04-23T00:53:52.423Z,14.60
2023-04-23T00:56:23.952Z,14.60
2023-04-23T00:58:55.412Z,14.60
2023-04-23T01:01:23.584Z,14.70
2023-04-23T01:03:54.391Z,14.70
2023-04-23T01:06:25.151Z,14.70
2023-04-23T01:08:52.707Z,14.70
2023-04-23T01:11:20.477Z,14.70
2023-04-23T01:13:47.923Z,14.70
2023-04-23T01:16:15.377Z,14.60
2023-04-23T01:18:43.414Z,14.60
2023-04-23T01:21:12.452Z,14.50
2023-04-23T01:23:40.292Z,14.40
2023-04-23T01:26:07.791Z,14.40
2023-04-23T01:28:37.215Z,14.40
2023-04-23T01:31:05.045Z,14.40
2023-04-23T01:33:34.093Z,14.50
2023-04-23T01:36:03.017Z,14.50
2023-04-23T01:38:33.810Z,14.50
2023-04-23T01:41:02.343Z,14.40
2023-04-23T01:43:31.168Z,14.40
2023-04-23T01:45:59.577Z,14.50
2023-04-23T01:48:28.830Z,14.40
2023-04-23T01:50:56.610Z,14.40
2023-04-23T01:53:24.058Z,14.40
2023-04-23T01:55:52.482Z,14.30
2023-04-23T01:58:19.916Z,14.30
2023-04-23T02:00:47.359Z,14.30
2023-04-23T02:03:15.673Z,14.20
2023-04-23T02:05:43.447Z,14.20
2023-04-23T02:08:11.362Z,14.10
2023-04-23T02:10:38.752Z,14.20
2023-04-23T02:13:06.185Z,14.10
2023-04-23T02:15:34.102Z,14.10
2023-04-23T02:18:01.659Z,14.10
2023-04-23T02:20:29.185Z,14.20
2023-04-23T02:22:56.825Z,14.10
2023-04-23T02:25:24.263Z,14.10
2023-04-23T02:27:51.813Z,14.10
2023-04-23T02:30:19.257Z,14.20
2023-04-23T02:32:46.717Z,14.20
2023-04-23T02:35:14.181Z,14.20
2023-04-23T02:37:41.621Z,14.10
2023-04-23T02:40:09.702Z,14.10
2023-04-23T02:42:37.390Z,14.10
2023-04-23T02:45:06.805Z,14.00
2023-04-23T02:47:34.448Z,14.00
2023-04-23T02:50:05.819Z,14.10
2023-04-23T02:52:34.004Z,14.00
2023-04-23T02:55:04.316Z,14.00
2023-04-23T02:57:31.903Z,14.00
2023-04-23T02:59:59.328Z,14.00
2023-04-23T03:02:35.963Z,14.00
2023-04-23T03:05:04.939Z,14.10
2023-04-23T03:07:32.390Z,14.00
2023-04-23T03:09:59.784Z,14.00
2023-04-23T03:12:27.238Z,13.90
2023-04-23T03:14:54.634Z,13.80
2023-04-23T03:17:23.869Z,13.80
2023-04-23T03:19:51.629Z,13.80
2023-04-23T03:22:19.277Z,13.70
2023-04-23T03:24:46.744Z,13.60
2023-04-23T03:27:15.371Z,13.50
2023-04-23T03:29:42.802Z,13.50
2023-04-23T03:32:10.470Z,13.60
2023-04-23T03:34:37.874Z,13.60
2023-04-23T03:37:05.263Z,13.60
2023-04-23T03:39:34.735Z,13.60
2023-04-23T03:42:02.415Z,13.60
2023-04-23T03:44:31.444Z,13.50
2023-04-23T03:46:59.275Z,13.50
2023-04-23T03:49:27.585Z,13.40
2023-04-23T03:51:56.335Z,13.40
2023-04-23T03:54:25.878Z,13.30
2023-04-23T03:57:20.879Z,13.30
2023-04-23T04:00:11.815Z,13.20
2023-04-23T04:02:43.263Z,13.00
2023-04-23T04:05:11.486Z,13.00
2023-04-23T04:07:39.654Z,12.90
2023-04-23T04:10:07.858Z,12.80
2023-04-23T04:12:36.322Z,12.70
2023-04-23T04:15:04.708Z,12.70
2023-04-23T04:17:32.161Z,12.80
2023-04-23T04:19:59.544Z,12.70
2023-04-23T04:22:27.051Z,12.80
2023-04-23T04:24:54.696Z,12.80
2023-04-23T04:27:22.164Z,12.80
2023-04-23T04:29:49.626Z,12.90
2023-04-23T04:32:17.054Z,12.90
2023-04-23T04:34:44.533Z,13.00
2023-04-23T04:37:12.983Z,13.00
2023-04-23T04:39:40.733Z,13.00
2023-04-23T04:42:08.230Z,13.00
2023-04-23T04:44:37.582Z,13.00
2023-04-23T04:47:08.044Z,13.10
2023-04-23T04:49:36.137Z,13.10
2023-04-23T04:52:03.714Z,13.10
2023-04-23T04:54:31.175Z,13.20
2023-04-23T04:56:58.542Z,13.30
2023-04-23T04:59:26.004Z,13.30
2023-04-23T05:01:53.663Z,13.30
2023-04-23T05:04:21.166Z,13.40
2023-04-23T05:06:48.683Z,13.50
2023-04-23T05:09:16.685Z,13.60
2023-04-23T05:11:44.111Z,13.70
2023-04-23T05:14:11.511Z,13.80
2023-04-23T05:16:39.038Z,13.90
2023-04-23T05:19:06.598Z,14.00
2023-04-23T05:21:34.383Z,14.10
2023-04-23T05:24:01.787Z,14.30
2023-04-23T05:26:29.515Z,14.50
2023-04-23T05:28:57.295Z,14.80
2023-04-23T05:31:24.863Z,15.00
2023-04-23T05:33:53.291Z,15.20
2023-04-23T05:36:21.004Z,15.40
2023-04-23T05:38:48.717Z,15.60
2023-04-23T05:41:16.448Z,15.60
2023-04-23T05:43:44.148Z,15.60
2023-04-23T05:46:11.594Z,15.60
2023-04-23T05:48:39.064Z,15.70
2023-04-23T05:51:06.635Z,15.80
2023-04-23T05:53:34.042Z,15.80
2023-04-23T05:56:01.435Z,15.80
2023-04-23T05:58:28.903Z,15.90
2023-04-23T06:00:57.645Z,16.10
2023-04-23T06:03:25.642Z,16.20
2023-04-23T06:05:53.189Z,16.30
2023-04-23T06:08:20.581Z,16.50
2023-04-23T06:10:48.119Z,16.60
2023-04-23T06:13:16.077Z,16.70
2023-04-23T06:15:43.590Z,17.10
2023-04-23T06:18:11.225Z,17.50
2023-04-23T06:20:38.653Z,17.40
2023-04-23T06:23:06.622Z,16.90
2023-04-23T06:25:34.044Z,16.60
2023-04-23T06:28:01.454Z,16.20
2023-04-23T06:30:34.226Z,16.20
2023-04-23T06:33:02.511Z,16.50
2023-04-23T06:35:31.185Z,17.10
2023-04-23T06:37:58.815Z,17.20
2023-04-23T06:40:26.269Z,17.50
2023-04-23T06:42:53.699Z,17.40
2023-04-23T06:45:37.516Z,17.30
2023-04-23T06:48:05.104Z,17.40
2023-04-23T06:50:32.545Z,17.50
2023-04-23T06:52:59.928Z,17.50
2023-04-23T06:55:29.028Z,17.60
2023-04-23T06:57:57.952Z,17.70
2023-04-23T07:00:25.641Z,17.50
2023-04-23T07:02:53.239Z,17.70
2023-04-23T07:05:20.742Z,18.30
2023-04-23T07:07:48.120Z,18.60
2023-04-23T07:10:17.821Z,18.50
2023-04-23T07:12:45.647Z,18.60
2023-04-23T07:15:13.114Z,18.60
2023-04-23T07:17:40.558Z,19.50
2023-04-23T07:20:08.931Z,20.80
2023-04-23T07:22:36.339Z,21.40
2023-04-23T07:25:05.398Z,21.60
2023-04-23T07:27:32.836Z,22.30
2023-04-23T07:30:01.929Z,22.60
2023-04-23T07:32:29.444Z,23.40
2023-04-23T07:34:57.311Z,24.40
2023-04-23T07:37:24.839Z,25.30
2023-04-23T07:39:53.863Z,26.10
2023-04-23T07:42:21.373Z,26.30
2023-04-23T07:44:48.854Z,25.80
2023-04-23T07:47:16.405Z,25.50
2023-04-23T07:49:44.105Z,24.80
2023-04-23T07:52:11.820Z,24.80
2023-04-23T07:54:39.571Z,24.80
2023-04-23T07:57:07.032Z,24.70
2023-04-23T07:59:34.640Z,24.70
2023-04-23T08:02:02.368Z,24.40
2023-04-23T08:04:29.970Z,24.60
2023-04-23T08:06:57.556Z,24.80
2023-04-23T08:09:26.129Z,24.90
2023-04-23T08:11:55.192Z,24.40
2023-04-23T08:14:22.599Z,23.30
2023-04-23T08:16:50.051Z,23.30
2023-04-23T08:19:17.796Z,23.80
2023-04-23T08:21:45.245Z,24.00
2023-04-23T08:24:12.693Z,24.40
2023-04-23T08:26:40.313Z,24.50
2023-04-23T08:29:09.062Z,24.30
2023-04-23T08:31:37.868Z,24.80
2023-04-23T08:34:05.277Z,25.60
2023-04-23T08:36:32.806Z,25.60
2023-04-23T08:39:00.933Z,25.40
2023-04-23T08:41:35.078Z,25.50
2023-04-23T08:44:05.447Z,26.00
2023-04-23T08:46:36.890Z,25.90
2023-04-23T08:49:07.732Z,25.90
2023-04-23T08:51:40.427Z,26.40
2023-04-23T08:54:13.776Z,26.70
2023-04-23T08:56:42.145Z,26.70
2023-04-23T08:59:09.956Z,26.70
2023-04-23T09:01:37.778Z,26.60
2023-04-23T09:04:05.429Z,26.50
2023-04-23T09:06:33.141Z,26.80
2023-04-23T09:09:01.173Z,26.80
2023-04-23T09:11:30.270Z,26.50
2023-04-23T09:13:58.084Z,26.80
2023-04-23T09:16:26.699Z,27.30
2023-04-23T09:18:57.365Z,28.50
2023-04-23T09:21:25.026Z,29.00
2023-04-23T09:23:52.615Z,29.30
2023-04-23T09:26:22.287Z,28.90
2023-04-23T09:28:51.382Z,28.60
2023-04-23T09:31:24.164Z,28.60
2023-04-23T09:33:53.828Z,28.70
2023-04-23T09:36:23.745Z,29.30
2023-04-23T09:38:56.232Z,28.80
2023-04-23T09:41:28.516Z,28.60
2023-04-23T09:43:57.886Z,29.20
2023-04-23T09:46:41.002Z,29.10
2023-04-23T09:49:11.781Z,29.20
2023-04-23T09:51:42.797Z,28.80
2023-04-23T09:54:21.859Z,29.00
2023-04-23T09:56:51.604Z,29.60
2023-04-23T09:59:46.920Z,30.20
2023-04-23T10:02:18.896Z,30.20
2023-04-23T10:04:52.317Z,29.60
2023-04-23T10:07:27.432Z,29.10
2023-04-23T10:09:56.071Z,29.20
2023-04-23T10:12:41.028Z,28.60
2023-04-23T10:15:15.117Z,28.00
2023-04-23T10:17:42.917Z,28.10
2023-04-23T10:20:12.636Z,28.70
2023-04-23T10:22:44.332Z,28.90
2023-04-23T10:25:15.730Z,28.80
2023-04-23T10:27:54.043Z,28.00
2023-04-23T10:30:23.221Z,28.50
2023-04-23T10:32:51.715Z,28.70
2023-04-23T10:35:19.492Z,28.70
2023-04-23T10:37:48.572Z,28.90
2023-04-23T10:40:22.166Z,29.10
2023-04-23T10:42:50.524Z,29.30
2023-04-23T10:45:24.610Z,29.20
2023-04-23T10:47:56.470Z,29.50
2023-04-23T10:50:35.832Z,29.60
2023-04-23T10:53:04.018Z,28.90
2023-04-23T10:55:33.143Z,28.90
2023-04-23T10:58:06.220Z,28.90
2023-04-23T11:00:43.459Z,28.10
2023-04-23T11:03:37.992Z,27.60
2023-04-23T11:06:07.241Z,26.30
2023-04-23T11:08:38.265Z,25.30
2023-04-23T11:11:09.672Z,24.90
2023-04-23T11:13:50.749Z,24.80
2023-04-23T11:16:22.313Z,24.40
2023-04-23T11:19:05.257Z,24.20
2023-04-23T11:22:06.198Z,24.10
2023-04-23T11:24:34.134Z,24.00
2023-04-23T11:27:02.797Z,23.80
2023-04-23T11:29:30.639Z,23.60
2023-04-23T11:32:02.942Z,23.60
2023-04-23T11:34:33.188Z,23.50
2023-04-23T11:37:02.449Z,23.40
2023-04-23T11:39:30.044Z,23.30
2023-04-23T11:41:59.497Z,23.20
2023-04-23T11:44:28.205Z,23.10
2023-04-23T11:46:58.390Z,23.10
2023-04-23T11:49:26.377Z,23.10
2023-04-23T11:51:55.016Z,23.30
2023-04-23T11:54:27.617Z,23.30
2023-04-23T11:56:55.972Z,23.50
2023-04-23T11:59:24.035Z,23.60
2023-04-23T12:02:00.772Z,23.50
2023-04-23T12:04:31.005Z,23.20
2023-04-23T12:06:59.485Z,23.10
2023-04-23T12:09:29.375Z,22.90
2023-04-23T12:12:01.145Z,23.10
2023-04-23T12:14:30.814Z,23.40
2023-04-23T12:17:08.870Z,23.60
2023-04-23T12:19:36.567Z,23.70
2023-04-23T12:22:04.673Z,23.90
2023-04-23T12:24:46.624Z,23.80
2023-04-23T12:27:16.745Z,23.90
2023-04-23T12:29:51.237Z,24.00
2023-04-23T12:32:22.970Z,23.90
2023-04-23T12:34:57.252Z,23.80
2023-04-23T12:37:27.029Z,23.90
2023-04-23T12:39:56.684Z,24.00
2023-04-23T12:42:27.827Z,24.10
2023-04-23T12:44:56.314Z,24.10
2023-04-23T12:47:26.434Z,24.10
2023-04-23T12:49:55.658Z,24.00
2023-04-23T12:52:24.727Z,24.00
2023-04-23T12:54:56.436Z,24.20
2023-04-23T12:57:25.330Z,24.30
2023-04-23T12:59:55.320Z,24.30
2023-04-23T13:02:24.827Z,24.30
2023-04-23T13:04:54.553Z,24.10
2023-04-23T13:07:25.692Z,23.90
2023-04-23T13:09:53.552Z,23.90
2023-04-23T13:12:21.178Z,23.70
2023-04-23T13:14:49.252Z,23.60
2023-04-23T13:17:16.917Z,23.40
2023-04-23T13:19:45.021Z,23.30
2023-04-23T13:22:12.636Z,23.30
2023-04-23T13:24:40.158Z,23.20
2023-04-23T13:27:08.101Z,23.10
2023-04-23T13:29:35.579Z,23.10
2023-04-23T13:32:03.925Z,23.10
2023-04-23T13:34:31.496Z,23.20
2023-04-23T13:36:59.033Z,23.30
2023-04-23T13:39:26.659Z,23.50
2023-04-23T13:42:09.155Z,23.60
2023-04-23T13:44:37.196Z,23.80
2023-04-23T13:47:04.935Z,23.90
2023-04-23T13:49:32.756Z,24.10
2023-04-23T13:52:04.434Z,24.50
2023-04-23T13:54:32.369Z,24.70
2023-04-23T13:57:01.055Z,24.70
2023-04-23T13:59:28.687Z,24.30
2023-04-23T14:01:56.257Z,23.90
2023-04-23T14:04:24.293Z,23.80
2023-04-23T14:06:52.079Z,23.60
2023-04-23T14:09:19.588Z,23.50
2023-04-23T14:11:47.025Z,23.30
2023-04-23T14:14:14.633Z,23.30
2023-04-23T14:16:42.117Z,23.30
2023-04-23T14:19:09.685Z,23.50
2023-04-23T14:21:37.510Z,23.60
2023-04-23T14:24:27.871Z,23.70
2023-04-23T14:26:55.517Z,23.70
2023-04-23T14:29:22.961Z,23.80
2023-04-23T14:31:51.117Z,23.80
2023-04-23T14:34:18.654Z,23.80
2023-04-23T14:36:49.411Z,23.70
2023-04-23T14:39:17.377Z,23.60
2023-04-23T14:41:45.593Z,23.50
2023-04-23T14:44:13.219Z,23.40
2023-04-23T14:46:40.972Z,23.40
2023-04-23T14:49:08.900Z,23.50
2023-04-23T14:51:37.518Z,23.50
2023-04-23T14:54:05.501Z,23.60
2023-04-23T14:56:33.375Z,23.70
2023-04-23T14:59:01.641Z,23.80
2023-04-23T15:01:31.464Z,23.90
2023-04-23T15:03:59.732Z,23.90
2023-04-23T15:06:27.676Z,24.10
2023-04-23T15:08:55.385Z,24.20
2023-04-23T15:11:23.006Z,24.30
2023-04-23T15:14:06.532Z,24.30
2023-04-23T15:16:48.329Z,24.40
2023-04-23T15:19:20.193Z,24.30
2023-04-23T15:21:48.602Z,24.00
2023-04-23T15:24:16.993Z,23.60
2023-04-23T15:26:45.981Z,23.40
2023-04-23T15:29:14.052Z,23.40
2023-04-23T15:31:42.280Z,23.30
2023-04-23T15:34:11.704Z,23.30
2023-04-23T15:36:39.405Z,23.20
2023-04-23T15:39:08.697Z,23.20
2023-04-23T15:41:39.454Z,23.10
2023-04-23T15:44:11.867Z,23.20
2023-04-23T15:46:40.063Z,23.10
2023-04-23T15:49:13.031Z,23.10
2023-04-23T15:51:40.997Z,23.00
2023-04-23T15:54:09.755Z,22.90
2023-04-23T15:56:39.160Z,22.80
2023-04-23T15:59:07.345Z,22.70
2023-04-23T16:01:37.425Z,22.70
2023-04-23T16:04:10.189Z,22.80
2023-04-23T16:06:39.162Z,22.80
2023-04-23T16:09:08.287Z,22.80
2023-04-23T16:11:37.759Z,22.70
2023-04-23T16:14:05.970Z,22.70
2023-04-23T16:16:33.454Z,22.60
2023-04-23T16:19:02.951Z,22.60
2023-04-23T16:21:32.201Z,22.50
2023-04-23T16:23:59.837Z,22.50
2023-04-23T16:26:29.090Z,22.50
2023-04-23T16:29:16.551Z,22.60
2023-04-23T16:31:44.996Z,22.50
2023-04-23T16:34:12.652Z,22.50
2023-04-23T16:36:40.110Z,22.50
2023-04-23T16:39:07.617Z,22.50
2023-04-23T16:41:35.130Z,22.50
2023-04-23T16:44:02.624Z,22.40
2023-04-23T16:46:31.333Z,22.40
2023-04-23T16:48:59.577Z,22.30
2023-04-23T16:51:28.801Z,22.30
2023-04-23T16:53:59.459Z,22.30
2023-04-23T16:56:27.400Z,22.30
2023-04-23T16:58:55.287Z,22.20
2023-04-23T17:01:22.832Z,22.20
2023-04-23T17:03:51.044Z,22.10
2023-04-23T17:06:32.781Z,22.10
2023-04-23T17:09:01.936Z,21.90
2023-04-23T17:11:30.447Z,21.90
2023-04-23T17:13:58.466Z,21.90
2023-04-23T17:16:29.096Z,21.80
2023-04-23T17:18:57.152Z,21.70
2023-04-23T17:21:25.919Z,21.70
2023-04-23T17:23:53.366Z,21.50
2023-04-23T17:26:20.867Z,21.40
2023-04-23T17:28:48.412Z,21.20
2023-04-23T17:31:16.333Z,21.10
2023-04-23T17:33:45.569Z,21.00
2023-04-23T17:36:13.151Z,20.90
2023-04-23T17:38:41.356Z,20.80
2023-04-23T17:41:08.807Z,20.80
2023-04-23T17:43:36.551Z,20.70
2023-04-23T17:46:04.382Z,20.60
2023-04-23T17:48:32.146Z,20.60
2023-04-23T17:50:59.704Z,20.50
2023-04-23T17:53:27.254Z,20.50
2023-04-23T17:55:59.427Z,20.40
2023-04-23T17:58:27.029Z,20.30
2023-04-23T18:00:54.986Z,20.20
2023-04-23T18:03:23.504Z,20.10
2023-04-23T18:05:51.564Z,20.00
2023-04-23T18:08:20.925Z,20.00
2023-04-23T18:10:48.513Z,19.90
2023-04-23T18:13:16.365Z,19.80
2023-04-23T18:15:45.839Z,19.70
2023-04-23T18:18:13.297Z,19.60
2023-04-23T18:20:40.928Z,19.60
2023-04-23T18:23:08.850Z,19.50
2023-04-23T18:25:36.836Z,19.40
2023-04-23T18:28:04.505Z,19.40
2023-04-23T18:30:32.003Z,19.40
2023-04-23T18:33:25.857Z,19.30
2023-04-23T18:35:59.291Z,19.30
2023-04-23T18:38:45.638Z,19.20
2023-04-23T18:41:13.141Z,19.10
2023-04-23T18:43:40.717Z,19.10
2023-04-23T18:46:08.339Z,19.00
2023-04-23T18:48:35.855Z,19.00
2023-04-23T18:51:33.299Z,18.90
2023-04-23T18:54:01.770Z,18.90
2023-04-23T18:56:29.328Z,18.90
2023-04-23T18:58:56.832Z,18.80
2023-04-23T19:01:28.110Z,18.80
2023-04-23T19:03:57.224Z,18.80
2023-04-23T19:06:25.053Z,18.70
2023-04-23T19:08:52.554Z,18.70
2023-04-23T19:11:20.307Z,18.60
2023-04-23T19:13:47.843Z,18.60
2023-04-23T19:16:18.217Z,18.60
2023-04-23T19:18:45.903Z,18.50
2023-04-23T19:21:13.446Z,18.50
2023-04-23T19:23:41.130Z,18.40
2023-04-23T19:26:09.475Z,18.50
2023-04-23T19:28:36.957Z,18.40
2023-04-23T19:31:04.775Z,18.30
2023-04-23T19:33:32.261Z,18.30
2023-04-23T19:35:59.741Z,18.30
2023-04-23T19:38:27.371Z,18.30
2023-04-23T19:40:55.042Z,18.20
2023-04-23T19:43:22.514Z,18.10
2023-04-23T19:45:49.954Z,18.20
2023-04-23T19:48:17.411Z,18.20
2023-04-23T19:50:44.956Z,18.20
2023-04-23T19:53:12.471Z,18.20
2023-04-23T19:55:39.957Z,18.20
2023-04-23T19:58:07.359Z,18.20
2023-04-23T20:00:40.027Z,18.20
2023-04-23T20:03:08.759Z,18.10
2023-04-23T20:05:37.411Z,18.10
2023-04-23T20:08:11.297Z,18.20
2023-04-23T20:10:38.866Z,18.20
2023-04-23T20:13:06.235Z,18.10
2023-04-23T20:15:33.625Z,18.20
2023-04-23T20:18:01.186Z,18.20
2023-04-23T20:20:28.610Z,18.10
2023-04-23T20:22:56.073Z,18.00
2023-04-23T20:25:25.582Z,18.00
2023-04-23T20:27:55.670Z,17.90
2023-04-23T20:30:23.214Z,17.80
2023-04-23T20:32:50.702Z,17.80
2023-04-23T20:35:18.210Z,17.70
2023-04-23T20:37:45.936Z,17.80
2023-04-23T20:40:14.644Z,17.70
2023-04-23T20:42:42.433Z,17.70
2023-04-23T20:45:14.730Z,17.70
2023-04-23T20:47:42.151Z,17.60
2023-04-23T20:50:09.874Z,17.60
2023-04-23T20:52:37.309Z,17.60
2023-04-23T20:55:04.946Z,17.50
2023-04-23T20:57:32.607Z,17.50
2023-04-23T20:59:59.981Z,17.60
2023-04-23T21:02:27.523Z,17.50
2023-04-23T21:04:55.156Z,17.50
2023-04-23T21:07:22.536Z,17.50
2023-04-23T21:09:49.910Z,17.50
2023-04-23T21:12:17.380Z,17.50
2023-04-23T21:14:44.880Z,17.50
2023-04-23T21:17:12.343Z,17.50
2023-04-23T21:19:39.971Z,17.40
2023-04-23T21:22:07.724Z,17.40
2023-04-23T21:24:35.090Z,17.40
2023-04-23T21:27:03.817Z,17.40
2023-04-23T21:29:31.904Z,17.40
2023-04-23T21:31:59.355Z,17.40
2023-04-23T21:34:27.462Z,17.40
2023-04-23T21:36:54.953Z,17.30
2023-04-23T21:39:22.389Z,17.30
2023-04-23T21:41:50.211Z,17.30
2023-04-23T21:44:17.634Z,17.30
2023-04-23T21:46:45.911Z,17.20
2023-04-23T21:49:13.398Z,17.30
2023-04-23T21:51:41.153Z,17.20
2023-04-23T21:54:09.232Z,17.20
2023-04-23T21:56:37.208Z,17.20
2023-04-23T21:59:04.744Z,17.20
2023-04-23T22:01:34.264Z,17.20
2023-04-23T22:04:04.624Z,17.10
2023-04-23T22:06:34.548Z,17.10
2023-04-23T22:09:03.173Z,17.10
2023-04-23T22:11:31.427Z,17.10
2023-04-23T22:14:00.256Z,17.10
2023-04-23T22:16:29.154Z,17.00
2023-04-23T22:18:57.675Z,17.10
2023-04-23T22:21:25.373Z,17.00
2023-04-23T22:23:52.910Z,17.10
2023-04-23T22:26:21.150Z,17.10
2023-04-23T22:28:48.550Z,17.10
2023-04-23T22:31:16.093Z,17.10
2023-04-23T22:33:43.546Z,17.00
2023-04-23T22:36:11.435Z,17.00
2023-04-23T22:38:38.854Z,17.00
2023-04-23T22:41:06.850Z,16.90
2023-04-23T22:43:34.208Z,16.90
2023-04-23T22:46:01.747Z,16.90
2023-04-23T22:48:29.269Z,16.80
2023-04-23T22:50:57.573Z,16.80
2023-04-23T22:53:25.271Z,16.80
2023-04-23T22:55:52.849Z,16.80
2023-04-23T22:58:20.601Z,16.80
2023-04-23T23:00:48.002Z,16.80
2023-04-23T23:03:15.848Z,16.70
2023-04-23T23:05:43.433Z,16.70
2023-04-23T23:08:11.656Z,16.80
2023-04-23T23:10:39.136Z,16.80
2023-04-23T23:13:06.502Z,16.90
2023-04-23T23:15:34.117Z,16.90
2023-04-23T23:18:02.059Z,16.90
2023-04-23T23:20:29.554Z,17.00
2023-04-23T23:22:56.965Z,17.00
2023-04-23T23:25:24.387Z,17.00
2023-04-23T23:27:51.809Z,17.00
2023-04-23T23:30:19.258Z,16.90
2023-04-23T23:32:46.678Z,16.90
2023-04-23T23:35:14.122Z,16.90
2023-04-23T23:37:41.484Z,16.90
2023-04-23T23:40:09.954Z,16.90
2023-04-23T23:42:37.312Z,16.90
2023-04-23T23:45:05.184Z,16.90
2023-04-23T23:47:32.613Z,16.80
2023-04-23T23:50:00.004Z,16.70
2023-04-23T23:52:27.479Z,16.70
2023-04-23T23:54:54.914Z,16.70
2023-04-23T23:57:22.298Z,16.70
2023-04-23T23:59:49.679Z,16.70
